Time;durP1;ratioP1;P1;durP2;ratioP2;P2;SDS_P1;SDS_P2;PMS_P1;PMS_P2;Temp;Humidity;BMP_temperature;BMP_pressure;BME280_temperature;BME280_humidity;BME280_pressure;Samples;Min_cycle;Max_cycle;Signal;HPM_P1;HPM_P2
2022/02/01 00:01:17;;;;;;;32.50;3.03;;;3.00;99.90;;;;;;5052878;28;20184;-80
2022/02/01 00:03:46;;;;;;;12.48;2.42;;;3.00;99.90;;;;;;5052572;28;20645;-81
2022/02/01 00:06:23;;;;;;;12.65;3.30;;;2.90;99.90;;;;;;5053922;28;20637;-81
2022/02/01 00:17:17;;;;;;;5.10;2.35;;;2.90;99.90;;;;;;5041511;28;20399;-81
2022/02/01 00:20:04;;;;;;;11.15;2.92;;;2.80;99.90;;;;;;5053579;28;20669;-80
2022/02/01 00:36:24;;;;;;;19.75;3.53;;;2.60;99.90;;;;;;5053444;28;20264;-81
2022/02/01 00:39:02;;;;;;;9.68;3.45;;;2.60;99.90;;;;;;5053254;28;20180;-81
2022/02/01 00:41:31;;;;;;;16.67;2.60;;;2.60;99.90;;;;;;5036711;28;20277;-81
2022/02/01 00:43:58;;;;;;;11.45;2.42;;;2.60;99.90;;;;;;5053125;28;20197;-80
2022/02/01 00:46:24;;;;;;;15.93;3.00;;;2.50;99.90;;;;;;5052698;28;20209;-80
2022/02/01 00:48:50;;;;;;;13.93;3.13;;;2.50;99.90;;;;;;5053141;28;20210;-80
2022/02/01 00:51:16;;;;;;;7.10;1.83;;;2.40;99.90;;;;;;5052430;28;20457;-80
2022/02/01 00:53:42;;;;;;;18.30;2.93;;;2.40;99.90;;;;;;5052873;28;20425;-80
2022/02/01 00:56:09;;;;;;;8.40;2.63;;;2.40;99.90;;;;;;5052807;28;20411;-80
2022/02/01 00:58:36;;;;;;;9.85;2.20;;;2.40;99.90;;;;;;5052621;28;20245;-80
2022/02/01 01:01:01;;;;;;;21.40;5.10;;;2.40;99.90;;;;;;5052590;28;20216;-80
2022/02/01 01:03:27;;;;;;;9.70;2.80;;;2.40;99.90;;;;;;5053119;28;20224;-79
2022/02/01 01:05:53;;;;;;;9.30;1.80;;;2.50;99.90;;;;;;5052870;28;20176;-80
2022/02/01 01:08:20;;;;;;;15.43;2.53;;;2.50;99.90;;;;;;5053056;28;20423;-80
2022/02/01 01:10:46;;;;;;;14.02;2.47;;;2.40;99.90;;;;;;5052286;28;20232;-80
2022/02/01 01:16:00;;;;;;;12.27;2.90;;;2.40;99.90;;;;;;5053016;28;20171;-81
2022/02/01 01:53:58;;;;;;;15.05;3.30;;;2.70;99.90;;;;;;5056218;28;20296;-80
2022/02/01 01:56:24;;;;;;;14.13;2.10;;;2.70;99.90;;;;;;5055936;28;20198;-81
2022/02/01 01:58:50;;;;;;;3.20;1.25;;;2.70;99.90;;;;;;5054817;28;20271;-80
2022/02/01 02:01:15;;;;;;;10.75;4.03;;;2.70;99.90;;;;;;5055741;28;20174;-80
2022/02/01 02:03:46;;;;;;;6.63;2.37;;;2.60;99.90;;;;;;5056063;28;20177;-80
2022/02/01 02:06:13;;;;;;;18.65;3.15;;;2.70;99.90;;;;;;5054597;28;20204;-80
2022/02/01 02:08:45;;;;;;;6.70;1.55;;;2.60;99.90;;;;;;5054628;28;20186;-81
2022/02/01 02:11:16;;;;;;;14.00;2.15;;;2.70;99.90;;;;;;5055549;28;20197;-80
2022/02/01 02:16:43;;;;;;;18.52;3.17;;;2.70;99.90;;;;;;5056003;28;20207;-80
2022/02/01 02:19:10;;;;;;;6.63;1.73;;;2.70;99.90;;;;;;5055824;28;20204;-81
2022/02/01 02:21:37;;;;;;;11.73;2.65;;;2.70;99.90;;;;;;5055151;28;20209;-81
2022/02/01 02:24:03;;;;;;;14.95;3.60;;;2.80;99.90;;;;;;5055758;28;20189;-80
2022/02/01 02:26:29;;;;;;;17.30;2.80;;;2.90;99.90;;;;;;5054703;28;20193;-81
2022/02/01 02:28:54;;;;;;;19.50;2.90;;;2.80;99.90;;;;;;5055478;28;20209;-82
2022/02/01 02:31:22;;;;;;;11.37;3.30;;;2.70;99.90;;;;;;5053950;28;20271;-80
2022/02/01 02:33:47;;;;;;;12.63;3.22;;;2.70;99.90;;;;;;5055597;28;20581;-81
2022/02/01 02:36:19;;;;;;;13.47;3.00;;;2.60;99.90;;;;;;5055556;28;20181;-80
2022/02/01 02:46:41;;;;;;;18.17;3.15;;;2.70;99.90;;;;;;5054910;28;20740;-80
2022/02/01 02:49:08;;;;;;;11.57;3.65;;;2.70;99.90;;;;;;5053858;28;20316;-81
2022/02/01 02:51:35;;;;;;;12.10;2.35;;;2.70;99.90;;;;;;5054843;28;20595;-80
2022/02/01 02:54:10;;;;;;;16.55;3.92;;;2.80;99.90;;;;;;5055305;28;20186;-81
2022/02/01 02:56:36;;;;;;;11.90;2.10;;;2.80;99.90;;;;;;5055030;28;20523;-80
2022/02/01 02:59:02;;;;;;;11.48;3.20;;;2.80;99.90;;;;;;5054586;28;20183;-80
2022/02/01 03:01:29;;;;;;;13.75;3.40;;;2.80;99.90;;;;;;5054805;28;20202;-81
2022/02/01 03:03:54;;;;;;;8.63;2.50;;;2.90;99.90;;;;;;5055038;28;20202;-80
2022/02/01 03:06:21;;;;;;;11.30;2.30;;;2.80;99.90;;;;;;5054909;28;20186;-80
2022/02/01 03:08:46;;;;;;;18.65;4.30;;;2.80;99.90;;;;;;5054801;28;20989;-80
2022/02/01 03:11:15;;;;;;;8.53;2.20;;;2.80;99.90;;;;;;5054383;28;20204;-81
2022/02/01 03:13:45;;;;;;;11.50;3.00;;;2.80;99.90;;;;;;5055044;28;20212;-81
2022/02/01 03:21:21;;;;;;;15.30;2.85;;;2.90;99.90;;;;;;5054670;28;20185;-80
2022/02/01 03:23:48;;;;;;;18.00;2.53;;;2.90;99.90;;;;;;5054741;28;20192;-81
2022/02/01 03:26:14;;;;;;;12.25;2.70;;;2.90;99.90;;;;;;5054462;28;20696;-80
2022/02/01 03:28:40;;;;;;;8.32;2.88;;;2.90;99.90;;;;;;5054270;28;20206;-81
2022/02/01 03:31:05;;;;;;;11.50;3.20;;;2.90;99.90;;;;;;5052569;28;20216;-81
2022/02/01 03:33:31;;;;;;;15.10;4.47;;;2.80;99.90;;;;;;5053054;28;20606;-80
2022/02/01 03:35:56;;;;;;;13.20;3.10;;;2.80;99.90;;;;;;5053182;28;20178;-80
2022/02/01 03:38:22;;;;;;;14.90;3.27;;;2.90;99.90;;;;;;5052880;28;20217;-80
2022/02/01 03:40:48;;;;;;;12.53;4.27;;;2.90;99.90;;;;;;5053794;28;20194;-79
2022/02/01 03:43:13;;;;;;;17.03;3.30;;;2.90;99.90;;;;;;5053746;28;20231;-80
2022/02/01 03:45:39;;;;;;;11.70;2.77;;;2.90;99.90;;;;;;5036339;28;20192;-81
2022/02/01 03:48:05;;;;;;;16.93;2.67;;;2.90;99.90;;;;;;5054181;28;20178;-80
2022/02/01 03:50:30;;;;;;;14.27;3.30;;;2.90;99.90;;;;;;5053954;28;20214;-80
2022/02/01 03:52:56;;;;;;;16.10;3.03;;;2.90;99.90;;;;;;5052492;28;20447;-80
2022/02/01 03:55:22;;;;;;;13.43;3.07;;;2.90;99.90;;;;;;5053662;28;20238;-79
2022/02/01 03:57:47;;;;;;;10.10;2.70;;;2.90;99.90;;;;;;5052742;28;20179;-80
2022/02/01 04:00:13;;;;;;;9.77;4.30;;;2.90;99.90;;;;;;5053908;28;20265;-81
2022/02/01 04:02:39;;;;;;;11.73;3.60;;;2.90;99.90;;;;;;5053415;28;20202;-81
2022/02/01 04:05:05;;;;;;;11.17;3.03;;;2.90;99.90;;;;;;5053856;28;20244;-80
2022/02/01 04:07:31;;;;;;;11.33;3.07;;;2.90;99.90;;;;;;5052394;28;20435;-79
2022/02/01 04:09:56;;;;;;;16.27;2.80;;;2.90;99.90;;;;;;5053570;28;20862;-79
2022/02/01 04:12:23;;;;;;;10.37;2.80;;;2.90;99.90;;;;;;5053389;28;20296;-80
2022/02/01 04:14:50;;;;;;;12.07;4.20;;;3.00;99.90;;;;;;5053592;28;20177;-80
2022/02/01 04:17:16;;;;;;;16.85;2.65;;;3.00;99.90;;;;;;5053540;28;20173;-80
2022/02/01 04:19:43;;;;;;;12.30;2.77;;;3.00;99.90;;;;;;5053473;28;20311;-80
2022/02/01 04:22:09;;;;;;;14.73;2.88;;;3.00;99.90;;;;;;5053242;28;20281;-80
2022/02/01 04:24:40;;;;;;;15.53;3.20;;;3.00;99.90;;;;;;5053291;28;20269;-81
2022/02/01 04:27:14;;;;;;;20.85;3.60;;;3.00;99.90;;;;;;5052674;28;20424;-81
2022/02/01 04:29:45;;;;;;;21.90;3.25;;;3.00;99.90;;;;;;5053424;28;20247;-81
2022/02/01 04:32:11;;;;;;;18.38;4.25;;;2.90;99.90;;;;;;5052837;28;20265;-79
2022/02/01 04:34:36;;;;;;;18.97;5.17;;;2.90;99.90;;;;;;5053615;28;20181;-81
2022/02/01 04:37:02;;;;;;;8.57;2.20;;;3.00;99.90;;;;;;5053468;28;20178;-80
2022/02/01 04:39:28;;;;;;;21.00;3.33;;;3.00;99.90;;;;;;5053197;28;20234;-80
2022/02/01 04:41:53;;;;;;;13.77;2.90;;;3.00;99.90;;;;;;5053092;28;20444;-80
2022/02/01 04:44:20;;;;;;;15.80;3.17;;;3.00;99.90;;;;;;5053042;28;20593;-80
2022/02/01 04:46:45;;;;;;;10.55;3.17;;;3.10;99.90;;;;;;5053177;28;20519;-80
2022/02/01 04:49:12;;;;;;;6.67;1.87;;;3.10;99.90;;;;;;5051916;28;20185;-80
2022/02/01 04:51:38;;;;;;;13.93;3.47;;;3.20;99.90;;;;;;5051298;28;20254;-81
2022/02/01 04:54:04;;;;;;;23.33;3.83;;;3.10;99.90;;;;;;5052517;28;20185;-81
2022/02/01 04:56:29;;;;;;;9.43;2.88;;;3.10;99.90;;;;;;5051920;28;20804;-80
2022/02/01 04:58:55;;;;;;;10.50;2.67;;;3.10;99.90;;;;;;5053336;28;20170;-80
2022/02/01 05:01:28;;;;;;;14.93;2.80;;;3.10;99.90;;;;;;5033030;28;20186;-80
2022/02/01 05:03:53;;;;;;;5.70;2.55;;;3.10;99.90;;;;;;5052901;28;20189;-80
2022/02/01 05:06:21;;;;;;;5.90;1.70;;;3.20;99.90;;;;;;5051756;28;20186;-80
2022/02/01 05:08:47;;;;;;;12.65;4.78;;;3.20;99.90;;;;;;5035703;28;20211;-81
2022/02/01 05:11:13;;;;;;;16.13;2.70;;;3.20;99.90;;;;;;5052528;28;20209;-80
2022/02/01 05:14:03;;;;;;;10.67;2.20;;;3.20;99.90;;;;;;5052646;28;20269;-81
2022/02/01 05:16:57;;;;;;;12.00;2.30;;;3.20;99.90;;;;;;5052004;28;20184;-80
2022/02/01 05:19:25;;;;;;;14.00;2.65;;;3.20;99.90;;;;;;5051291;28;20274;-80
2022/02/01 05:21:51;;;;;;;28.52;4.07;;;3.20;99.90;;;;;;5052445;28;20212;-79
2022/02/01 05:24:20;;;;;;;9.82;2.30;;;3.30;99.90;;;;;;5053039;28;20230;-80
2022/02/01 05:26:45;;;;;;;10.07;2.80;;;3.30;99.90;;;;;;5051807;28;20185;-80
2022/02/01 05:29:11;;;;;;;16.07;2.80;;;3.30;99.90;;;;;;5052553;28;20554;-80
2022/02/01 05:31:37;;;;;;;16.67;3.73;;;3.30;99.90;;;;;;5052464;28;20968;-80
2022/02/01 05:34:03;;;;;;;15.40;2.90;;;3.20;99.90;;;;;;5052659;28;20178;-81
2022/02/01 05:36:28;;;;;;;8.80;3.20;;;3.20;99.90;;;;;;5052727;28;20175;-80
2022/02/01 05:38:55;;;;;;;9.87;3.17;;;3.30;99.90;;;;;;5052939;28;20456;-80
2022/02/01 05:41:23;;;;;;;9.30;2.60;;;3.20;99.90;;;;;;5052403;28;20187;-80
2022/02/01 05:43:49;;;;;;;11.90;2.22;;;3.30;99.90;;;;;;5052382;28;20248;-80
2022/02/01 05:46:16;;;;;;;14.77;3.60;;;3.30;99.90;;;;;;5052218;28;20187;-80
2022/02/01 05:48:42;;;;;;;23.63;2.72;;;3.20;99.90;;;;;;5052303;28;20178;-80
2022/02/01 05:51:08;;;;;;;13.17;2.40;;;3.20;99.90;;;;;;5050742;28;20209;-80
2022/02/01 05:53:33;;;;;;;17.07;2.50;;;3.30;99.90;;;;;;5052445;28;20173;-80
2022/02/01 05:55:59;;;;;;;21.83;2.97;;;3.30;99.90;;;;;;5052309;28;20200;-80
2022/02/01 05:58:25;;;;;;;8.50;2.23;;;3.30;99.90;;;;;;5052310;28;20188;-80
2022/02/01 06:00:51;;;;;;;17.47;2.37;;;3.20;99.90;;;;;;5050863;28;20360;-81
2022/02/01 06:03:16;;;;;;;10.75;1.95;;;3.30;99.90;;;;;;5051066;28;20492;-81
2022/02/01 06:05:42;;;;;;;7.97;2.87;;;3.30;99.90;;;;;;5052867;28;20716;-80
2022/02/01 06:08:09;;;;;;;10.27;2.43;;;3.30;99.90;;;;;;5057059;28;20263;-81
2022/02/01 06:10:34;;;;;;;9.60;2.50;;;3.30;99.90;;;;;;5059871;28;20194;-81
2022/02/01 06:13:00;;;;;;;8.23;2.77;;;3.30;99.90;;;;;;5057839;28;20512;-80
2022/02/01 06:15:28;;;;;;;8.87;2.90;;;3.40;99.90;;;;;;5055888;28;20657;-80
2022/02/01 06:17:54;;;;;;;14.73;2.40;;;3.30;99.90;;;;;;5055801;28;20178;-80
2022/02/01 06:20:20;;;;;;;10.75;2.05;;;3.40;99.90;;;;;;5055772;28;20621;-79
2022/02/01 06:22:46;;;;;;;10.47;1.73;;;3.40;99.90;;;;;;5055311;28;20213;-81
2022/02/01 06:25:12;;;;;;;10.23;2.43;;;3.50;99.90;;;;;;5054586;28;20420;-81
2022/02/01 06:27:38;;;;;;;9.10;2.67;;;3.60;99.90;;;;;;5055689;28;20227;-80
2022/02/01 06:30:06;;;;;;;6.60;2.25;;;3.50;99.90;;;;;;5055428;28;20223;-80
2022/02/01 06:32:38;;;;;;;4.20;1.60;;;3.50;99.90;;;;;;5053714;28;20209;-79
2022/02/01 06:35:04;;;;;;;8.30;2.03;;;3.50;99.90;;;;;;5055694;28;20184;-80
2022/02/01 06:37:30;;;;;;;11.35;2.17;;;3.50;99.90;;;;;;5054321;28;20205;-80
2022/02/01 06:39:56;;;;;;;10.83;1.93;;;3.40;99.90;;;;;;5054304;28;20182;-80
2022/02/01 06:42:21;;;;;;;6.40;1.87;;;3.50;99.90;;;;;;5054914;28;20318;-81
2022/02/01 06:44:47;;;;;;;5.57;2.33;;;3.50;99.90;;;;;;5053924;28;20189;-80
2022/02/01 06:47:12;;;;;;;4.67;2.07;;;3.50;99.90;;;;;;5055102;28;20240;-79
2022/02/01 06:49:38;;;;;;;9.93;2.07;;;3.60;99.90;;;;;;5054081;28;20229;-79
2022/02/01 06:52:04;;;;;;;12.93;2.30;;;3.60;99.90;;;;;;5054740;28;20225;-80
2022/02/01 06:54:30;;;;;;;10.88;2.97;;;3.60;99.90;;;;;;5055006;28;20178;-80
2022/02/01 06:56:56;;;;;;;13.90;3.03;;;3.60;99.90;;;;;;5055045;28;20697;-80
2022/02/01 06:59:22;;;;;;;10.20;2.85;;;3.70;99.90;;;;;;5054761;28;20185;-81
2022/02/01 07:01:47;;;;;;;8.40;3.07;;;3.60;99.90;;;;;;5054621;28;20582;-80
2022/02/01 07:04:13;;;;;;;9.17;3.23;;;3.70;99.90;;;;;;5053734;28;20174;-79
2022/02/01 07:06:38;;;;;;;15.00;3.10;;;3.80;99.90;;;;;;5054762;28;20178;-80
2022/02/01 07:09:05;;;;;;;7.03;2.80;;;3.80;99.90;;;;;;5054792;28;20178;-80
2022/02/01 07:11:30;;;;;;;15.18;3.25;;;3.80;99.90;;;;;;5054414;28;20557;-80
2022/02/01 07:13:56;;;;;;;16.33;3.37;;;3.70;99.90;;;;;;5053352;28;20185;-81
2022/02/01 07:16:22;;;;;;;10.97;2.67;;;3.70;99.90;;;;;;5055160;28;20417;-79
2022/02/01 07:18:48;;;;;;;10.80;3.77;;;3.70;99.90;;;;;;5055339;28;20622;-79
2022/02/01 07:21:16;;;;;;;15.20;3.30;;;3.80;99.90;;;;;;5055166;28;20848;-80
2022/02/01 07:23:41;;;;;;;7.78;2.70;;;3.80;99.90;;;;;;5053762;28;20273;-80
2022/02/01 07:26:08;;;;;;;11.67;3.20;;;3.90;99.90;;;;;;5053970;28;20209;-80
2022/02/01 07:28:35;;;;;;;8.80;3.42;;;3.90;99.90;;;;;;5054509;28;20194;-79
2022/02/01 07:31:01;;;;;;;18.05;4.95;;;3.90;99.90;;;;;;5054222;28;20207;-80
2022/02/01 07:33:28;;;;;;;12.27;4.63;;;3.80;99.90;;;;;;5054745;28;20188;-80
2022/02/01 07:35:55;;;;;;;7.65;3.38;;;3.90;99.90;;;;;;5054358;28;20857;-80
2022/02/01 07:38:22;;;;;;;14.60;4.88;;;3.90;99.90;;;;;;5053471;28;20182;-80
2022/02/01 07:40:50;;;;;;;9.73;4.38;;;3.90;99.90;;;;;;5054227;28;20174;-79
2022/02/01 07:43:16;;;;;;;20.25;4.38;;;3.90;99.90;;;;;;5054090;28;20292;-79
2022/02/01 07:45:44;;;;;;;16.25;5.47;;;4.00;99.90;;;;;;5053355;28;20220;-79
2022/02/01 07:48:11;;;;;;;11.52;4.72;;;4.00;99.90;;;;;;5054706;28;20194;-79
2022/02/01 07:50:39;;;;;;;16.13;5.05;;;3.90;99.90;;;;;;5054290;28;20198;-79
2022/02/01 07:53:06;;;;;;;16.90;5.25;;;4.00;99.90;;;;;;5053899;28;20190;-78
2022/02/01 07:55:31;;;;;;;10.57;4.65;;;4.00;99.90;;;;;;5054697;28;20198;-79
2022/02/01 07:57:57;;;;;;;13.23;5.70;;;4.00;99.90;;;;;;5054121;28;20216;-79
2022/02/01 08:00:23;;;;;;;15.30;5.53;;;4.00;99.90;;;;;;5053864;28;20210;-78
2022/02/01 08:02:54;;;;;;;15.90;5.50;;;4.00;99.90;;;;;;5052651;28;20194;-79
2022/02/01 08:05:20;;;;;;;13.88;5.55;;;4.00;99.90;;;;;;5053825;28;20170;-78
2022/02/01 08:07:46;;;;;;;14.40;4.70;;;4.00;99.90;;;;;;5052942;28;20186;-77
2022/02/01 08:10:14;;;;;;;18.07;5.97;;;4.10;99.90;;;;;;5054113;28;20185;-78
2022/02/01 08:21:01;;;;;;;10.73;5.43;;;4.00;99.90;;;;;;5053946;28;20166;-80
2022/02/01 08:23:23;;;;;;;16.95;5.00;;;4.00;99.90;;;;;;5053427;28;20237;-78
2022/02/01 08:25:52;;;;;;;22.67;7.57;;;3.90;99.90;;;;;;5053730;28;20177;-80
2022/02/01 08:28:20;;;;;;;15.90;6.53;;;3.80;99.90;;;;;;5053313;28;20259;-81
2022/02/01 08:30:48;;;;;;;23.30;7.80;;;3.90;99.90;;;;;;5053547;28;20206;-81
2022/02/01 08:33:13;;;;;;;14.23;8.60;;;3.90;99.90;;;;;;5053747;28;20347;-79
2022/02/01 08:35:39;;;;;;;15.87;6.53;;;3.80;99.90;;;;;;5052482;28;20604;-81
2022/02/01 08:38:04;;;;;;;20.83;7.67;;;3.80;99.90;;;;;;5053568;28;20261;-80
2022/02/01 08:40:30;;;;;;;14.33;6.27;;;3.90;99.90;;;;;;5053478;28;20692;-79
2022/02/01 08:42:56;;;;;;;16.10;7.30;;;3.70;99.90;;;;;;5034730;28;20324;-79
2022/02/01 08:45:23;;;;;;;14.87;7.67;;;3.70;99.90;;;;;;5052997;28;20170;-81
2022/02/01 08:47:57;;;;;;;13.88;6.97;;;3.80;99.90;;;;;;5053229;28;20174;-78
2022/02/01 08:50:28;;;;;;;13.45;7.18;;;3.80;99.90;;;;;;5053981;28;20170;-80
2022/02/01 08:52:59;;;;;;;18.38;7.05;;;3.80;99.90;;;;;;5053262;28;20201;-78
2022/02/01 08:55:37;;;;;;;18.70;6.82;;;3.90;99.90;;;;;;5053210;28;20158;-77
2022/02/01 08:58:04;;;;;;;15.15;8.50;;;3.90;99.90;;;;;;5053169;28;20554;-78
2022/02/01 09:00:31;;;;;;;12.32;6.35;;;3.90;99.90;;;;;;5052391;28;20513;-79
2022/02/01 09:02:58;;;;;;;20.23;7.88;;;3.90;99.90;;;;;;5052955;28;20190;-83
2022/02/01 09:05:25;;;;;;;11.30;7.28;;;4.00;99.90;;;;;;5053342;28;20168;-83
2022/02/01 09:07:51;;;;;;;11.93;5.70;;;4.00;99.90;;;;;;5035250;28;20539;-85
2022/02/01 09:10:17;;;;;;;11.73;6.80;;;3.90;99.90;;;;;;5051913;28;20639;-82
2022/02/01 09:12:42;;;;;;;12.30;7.63;;;3.90;99.90;;;;;;5053197;28;20194;-81
2022/02/01 09:15:08;;;;;;;11.10;6.80;;;3.90;99.90;;;;;;5053357;28;20440;-81
2022/02/01 09:17:34;;;;;;;10.90;6.63;;;4.00;99.90;;;;;;5052076;28;20259;-82
2022/02/01 09:20:00;;;;;;;12.57;7.37;;;4.10;99.90;;;;;;5053430;28;20467;-83
2022/02/01 09:22:26;;;;;;;8.95;6.53;;;4.20;99.90;;;;;;5051687;28;20194;-83
2022/02/01 09:24:52;;;;;;;9.17;5.90;;;4.20;99.90;;;;;;5053402;28;20178;-84
2022/02/01 09:27:18;;;;;;;6.83;5.77;;;4.30;99.90;;;;;;5035733;28;20308;-83
2022/02/01 09:29:43;;;;;;;9.60;5.27;;;4.30;99.90;;;;;;5052893;28;20435;-85
2022/02/01 09:32:09;;;;;;;6.80;5.20;;;4.30;99.90;;;;;;5051553;28;20305;-83
2022/02/01 09:34:35;;;;;;;9.20;6.30;;;4.30;99.90;;;;;;5052919;28;20171;-83
2022/02/01 09:37:03;;;;;;;10.50;5.83;;;4.40;99.90;;;;;;5051788;28;20673;-84
2022/02/01 09:39:30;;;;;;;10.70;4.57;;;4.40;99.90;;;;;;5053018;28;20197;-85
2022/02/01 09:41:56;;;;;;;10.52;5.10;;;4.30;99.90;;;;;;5056532;28;20608;-86
2022/02/01 09:44:23;;;;;;;7.80;3.72;;;4.40;99.90;;;;;;5056962;28;20174;-85
2022/02/01 09:46:51;;;;;;;12.63;4.88;;;4.40;99.90;;;;;;5056742;28;20185;-84
2022/02/01 09:49:19;;;;;;;6.80;3.85;;;4.40;99.90;;;;;;5056887;28;20276;-85
2022/02/01 09:51:59;;;;;;;4.32;3.13;;;4.50;99.90;;;;;;5056379;28;20570;-84
2022/02/01 09:54:28;;;;;;;6.53;3.65;;;4.50;99.90;;;;;;5056677;28;20157;-84
2022/02/01 09:56:55;;;;;;;11.98;4.40;;;4.50;99.90;;;;;;5055414;28;20522;-83
2022/02/01 09:59:30;;;;;;;6.75;3.60;;;4.50;99.90;;;;;;5055854;28;20179;-84
2022/02/01 10:01:57;;;;;;;6.18;3.47;;;4.60;99.90;;;;;;5056322;28;20193;-84
2022/02/01 10:04:27;;;;;;;7.72;2.97;;;4.70;99.90;;;;;;5056574;28;20223;-85
2022/02/01 10:06:55;;;;;;;9.52;3.97;;;4.70;99.90;;;;;;5056612;28;20215;-85
2022/02/01 10:09:20;;;;;;;4.68;3.13;;;4.80;99.90;;;;;;5055552;28;20179;-85
2022/02/01 10:11:48;;;;;;;2.90;2.33;;;4.80;99.90;;;;;;5054536;28;20276;-86
2022/02/01 10:14:26;;;;;;;4.85;2.80;;;4.80;99.90;;;;;;5056053;28;20462;-84
2022/02/01 10:16:54;;;;;;;5.07;2.70;;;4.80;99.90;;;;;;5055048;28;20166;-84
2022/02/01 10:19:22;;;;;;;5.80;2.83;;;4.80;99.90;;;;;;5055794;28;20174;-85
2022/02/01 10:21:56;;;;;;;4.13;3.30;;;4.90;99.90;;;;;;5055462;28;20197;-83
2022/02/01 10:24:35;;;;;;;3.83;2.40;;;5.00;99.90;;;;;;5055740;28;20195;-83
2022/02/01 10:27:09;;;;;;;4.03;2.35;;;5.10;99.90;;;;;;5055723;28;20178;-84
2022/02/01 10:29:38;;;;;;;6.10;2.47;;;5.10;99.90;;;;;;5054358;28;20692;-83
2022/02/01 10:32:24;;;;;;;3.33;2.67;;;5.10;99.90;;;;;;5055037;28;20267;-83
2022/02/01 10:34:52;;;;;;;3.72;2.28;;;5.20;99.90;;;;;;5055551;28;20158;-82
2022/02/01 10:37:23;;;;;;;3.33;2.35;;;5.30;99.90;;;;;;5054038;28;20661;-84
2022/02/01 10:39:56;;;;;;;3.20;2.55;;;5.30;99.90;;;;;;5055285;28;20170;-83
2022/02/01 10:42:22;;;;;;;12.05;3.00;;;5.30;99.90;;;;;;5054734;28;20194;-83
2022/02/01 10:44:55;;;;;;;4.88;2.33;;;5.40;99.90;;;;;;5037864;28;20182;-84
2022/02/01 10:47:36;;;;;;;7.53;2.78;;;5.40;99.90;;;;;;5055282;28;20177;-84
2022/02/01 10:50:09;;;;;;;4.82;2.40;;;5.40;99.90;;;;;;5054221;28;20634;-84
2022/02/01 10:52:50;;;;;;;2.08;1.35;;;5.50;99.90;;;;;;5052578;28;20678;-82
2022/02/01 10:55:18;;;;;;;3.63;2.15;;;5.50;99.90;;;;;;5055118;28;20594;-81
2022/02/01 10:57:44;;;;;;;3.47;2.05;;;5.50;99.90;;;;;;5055130;28;20190;-83
2022/02/01 11:00:13;;;;;;;4.63;2.10;;;5.50;99.90;;;;;;5055077;28;20184;-83
2022/02/01 11:02:44;;;;;;;3.55;2.10;;;5.50;99.90;;;;;;5053303;28;20247;-83
2022/02/01 11:05:20;;;;;;;3.35;2.00;;;5.50;99.90;;;;;;5055053;28;20268;-83
2022/02/01 11:07:50;;;;;;;3.58;2.42;;;5.50;99.90;;;;;;5055039;28;20532;-82
2022/02/01 11:10:16;;;;;;;5.63;2.30;;;5.60;99.90;;;;;;5054727;28;20182;-83
2022/02/01 11:12:41;;;;;;;2.83;2.20;;;5.50;99.90;;;;;;5053159;28;20272;-82
2022/02/01 11:15:21;;;;;;;7.27;3.03;;;5.60;99.90;;;;;;5054753;28;20170;-83
2022/02/01 11:17:50;;;;;;;1.85;1.48;;;5.60;99.90;;;;;;5054760;28;20176;-83
2022/02/01 11:20:27;;;;;;;3.38;2.03;;;5.60;99.90;;;;;;5053366;28;20174;-82
2022/02/01 11:23:16;;;;;;;5.85;2.55;;;5.70;99.90;;;;;;5054178;28;20186;-82
2022/02/01 11:25:49;;;;;;;3.75;2.70;;;5.70;99.90;;;;;;5054637;28;20208;-82
2022/02/01 11:28:43;;;;;;;3.65;2.40;;;5.60;99.90;;;;;;5054322;28;20189;-81
2022/02/01 11:31:09;;;;;;;3.67;1.90;;;5.70;99.90;;;;;;5054089;28;20582;-82
2022/02/01 11:33:40;;;;;;;3.57;2.20;;;5.70;99.90;;;;;;5054393;28;20197;-84
2022/02/01 11:36:08;;;;;;;5.13;2.50;;;5.70;99.90;;;;;;5054781;28;20498;-81
2022/02/01 11:38:34;;;;;;;3.47;2.88;;;5.80;99.90;;;;;;5054334;28;20643;-82
2022/02/01 11:41:06;;;;;;;3.63;2.40;;;5.80;99.90;;;;;;5052754;28;20212;-81
2022/02/01 11:43:32;;;;;;;3.22;2.83;;;5.80;99.90;;;;;;5054151;28;20437;-81
2022/02/01 11:46:04;;;;;;;3.70;2.10;;;5.80;99.90;;;;;;5054129;28;20207;-80
2022/02/01 11:48:36;;;;;;;5.40;2.17;;;5.80;99.90;;;;;;5054113;28;20272;-81
2022/02/01 11:51:06;;;;;;;1.90;1.80;;;5.80;99.90;;;;;;5053727;28;20914;-81
2022/02/01 11:53:35;;;;;;;4.53;2.75;;;5.80;99.90;;;;;;5053968;28;20182;-81
2022/02/01 11:56:02;;;;;;;2.35;1.63;;;5.80;99.90;;;;;;5053901;28;20253;-81
2022/02/01 11:58:49;;;;;;;5.20;2.72;;;5.80;99.90;;;;;;5053882;28;20479;-81
2022/02/01 12:01:31;;;;;;;2.10;1.90;;;5.80;99.90;;;;;;5052320;28;20186;-81
2022/02/01 12:04:09;;;;;;;5.32;2.20;;;5.90;99.90;;;;;;5053926;28;20650;-81
2022/02/01 12:06:53;;;;;;;2.58;2.38;;;5.90;99.90;;;;;;5052525;28;20178;-82
2022/02/01 12:09:20;;;;;;;1.70;1.60;;;5.90;99.90;;;;;;5053811;28;20161;-82
2022/02/01 12:11:54;;;;;;;1.90;1.70;;;5.90;99.90;;;;;;5052250;28;20296;-81
2022/02/01 12:14:20;;;;;;;2.20;1.90;;;5.90;99.90;;;;;;5053669;28;20162;-83
2022/02/01 12:16:47;;;;;;;2.00;1.80;;;5.90;99.90;;;;;;5053733;28;20177;-82
2022/02/01 12:19:20;;;;;;;1.10;1.00;;;5.90;99.90;;;;;;5052409;28;20206;-82
2022/02/01 12:22:22;;;;;;;2.10;1.95;;;5.90;99.90;;;;;;5053217;28;20197;-83
2022/02/01 12:24:48;;;;;;;2.20;2.00;;;5.90;99.90;;;;;;5053515;28;20165;-83
2022/02/01 12:27:14;;;;;;;1.60;1.50;;;5.90;99.90;;;;;;5053406;28;20170;-83
2022/02/01 12:29:40;;;;;;;3.10;1.60;;;5.90;99.90;;;;;;5053583;28;20189;-83
2022/02/01 12:32:08;;;;;;;1.50;1.40;;;5.90;99.90;;;;;;5052089;28;20317;-83
2022/02/01 12:34:35;;;;;;;2.10;1.90;;;5.80;99.90;;;;;;5053197;28;20170;-82
2022/02/01 12:37:01;;;;;;;3.08;1.58;;;5.90;99.90;;;;;;5053148;28;20174;-82
2022/02/01 12:39:35;;;;;;;1.50;1.40;;;5.90;99.90;;;;;;5053352;28;20209;-82
2022/02/01 12:42:13;;;;;;;2.60;1.40;;;6.00;99.90;;;;;;5053226;28;20229;-82
2022/02/01 12:47:24;;;;;;;1.88;1.30;;;6.00;99.90;;;;;;5053028;28;20181;-82
2022/02/01 12:49:53;;;;;;;2.40;1.33;;;6.10;99.90;;;;;;5053368;28;20732;-83
2022/02/01 12:52:25;;;;;;;1.55;1.45;;;6.10;99.90;;;;;;5052801;28;20702;-82
2022/02/01 12:55:19;;;;;;;2.47;1.50;;;6.10;99.90;;;;;;5053165;28;20166;-82
2022/02/01 12:57:45;;;;;;;1.40;1.27;;;6.10;99.90;;;;;;5053029;28;20236;-82
2022/02/01 13:00:17;;;;;;;2.27;1.57;;;6.20;99.90;;;;;;5053104;28;20183;-82
2022/02/01 13:02:43;;;;;;;1.55;1.45;;;6.20;99.90;;;;;;5052815;28;20212;-82
2022/02/01 13:05:13;;;;;;;1.40;1.30;;;6.30;99.90;;;;;;5052857;28;20183;-82
2022/02/01 13:16:20;;;;;;;1.60;1.50;;;6.30;99.90;;;;;;5055818;28;20162;-82
2022/02/01 13:21:22;;;;;;;2.20;2.00;;;6.40;99.90;;;;;;5056899;28;20169;-83
2022/02/01 13:23:57;;;;;;;2.13;1.75;;;6.50;99.90;;;;;;5055579;28;20169;-83
2022/02/01 13:26:27;;;;;;;4.00;1.50;;;6.50;99.90;;;;;;5056873;28;20166;-83
2022/02/01 13:29:02;;;;;;;3.08;1.77;;;6.50;99.90;;;;;;5056746;28;20273;-83
2022/02/01 13:31:31;;;;;;;1.65;1.55;;;6.60;99.90;;;;;;5056299;28;20254;-83
2022/02/01 13:34:03;;;;;;;5.25;1.65;;;6.60;99.90;;;;;;5056668;28;20206;-83
2022/02/01 13:36:29;;;;;;;2.50;1.85;;;6.70;99.90;;;;;;5056699;28;20167;-83
2022/02/01 13:39:02;;;;;;;1.67;1.50;;;6.70;99.90;;;;;;5055390;28;20204;-82
2022/02/01 13:41:30;;;;;;;1.20;1.02;;;6.80;99.90;;;;;;5056310;28;20166;-83
2022/02/01 13:44:01;;;;;;;2.00;1.80;;;6.80;99.90;;;;;;5056584;28;20671;-83
2022/02/01 13:46:29;;;;;;;4.20;1.63;;;6.80;99.90;;;;;;5056535;28;20170;-83
2022/02/01 13:49:10;;;;;;;1.73;1.60;;;6.90;99.90;;;;;;5056620;28;20167;-83
2022/02/01 13:51:46;;;;;;;1.50;1.30;;;6.90;99.90;;;;;;5055923;28;20297;-83
2022/02/01 13:54:12;;;;;;;2.00;1.90;;;7.00;99.90;;;;;;5056393;28;20220;-82
2022/02/01 13:56:48;;;;;;;1.60;1.50;;;7.00;99.90;;;;;;5056237;28;20184;-83
2022/02/01 13:59:21;;;;;;;1.65;1.38;;;6.90;99.90;;;;;;5055040;28;20166;-83
2022/02/01 14:01:48;;;;;;;1.75;1.65;;;6.90;99.90;;;;;;5055777;28;20648;-83
2022/02/01 14:04:28;;;;;;;3.95;1.40;;;6.90;99.90;;;;;;5056239;28;20576;-83
2022/02/01 14:08:00;;;;;;;1.33;1.20;;;6.90;99.90;;;;;;5056127;28;20166;-83
2022/02/01 14:10:02;;;;;;;1.92;1.83;;;6.90;99.90;;;;;;5048397;28;20195;-83
2022/02/01 14:28:57;;;;;;;1.55;1.45;;;6.90;99.90;;;;;;5055826;28;20209;-85
2022/02/01 14:34:10;;;;;;;3.42;2.70;;;6.90;99.90;;;;;;5054786;28;20209;-83
2022/02/01 14:36:39;;;;;;;4.20;2.47;;;7.00;99.90;;;;;;5054436;28;20263;-84
2022/02/01 14:39:17;;;;;;;3.28;2.85;;;6.90;99.90;;;;;;5055678;28;20253;-83
2022/02/01 14:44:34;;;;;;;7.00;2.83;;;6.90;99.90;;;;;;5055755;28;20194;-83
2022/02/01 14:47:01;;;;;;;6.35;3.28;;;7.00;99.90;;;;;;5055357;28;20171;-83
2022/02/01 14:49:26;;;;;;;3.83;3.50;;;7.00;99.90;;;;;;5055335;28;20174;-84
2022/02/01 14:51:57;;;;;;;4.67;3.40;;;7.00;99.90;;;;;;5054831;28;20263;-84
2022/02/01 14:54:31;;;;;;;3.85;3.55;;;7.00;99.90;;;;;;5055204;28;20166;-83
2022/02/01 15:03:41;;;;;;;6.47;3.17;;;7.00;99.90;;;;;;5055385;28;20167;-83
2022/02/01 15:11:22;;;;;;;6.00;5.40;;;7.10;99.90;;;;;;5053961;28;20170;-84
2022/02/01 15:13:31;;;;;;;8.27;6.40;;;7.10;99.90;;;;;;5055057;28;20194;-84